sensor_id;sensor_type;location;lat;lon;timestamp;P1;durP1;ratioP1;P2;durP2;ratioP2
7361;SDS011;3721;44.490;11.220;2022-11-06T00:00:20;8.63;;;4.83;;
7361;SDS011;3721;44.490;11.220;2022-11-06T00:02:59;8.83;;;4.40;;
7361;SDS011;3721;44.490;11.220;2022-11-06T00:05:34;7.33;;;4.33;;
7361;SDS011;3721;44.490;11.220;2022-11-06T00:08:35;8.33;;;4.53;;
7361;SDS011;3721;44.490;11.220;2022-11-06T00:11:14;8.97;;;4.97;;
7361;SDS011;3721;44.490;11.220;2022-11-06T00:14:10;11.10;;;4.57;;
7361;SDS011;3721;44.490;11.220;2022-11-06T00:17:01;7.43;;;4.40;;
7361;SDS011;3721;44.490;11.220;2022-11-06T00:19:29;8.97;;;4.57;;
7361;SDS011;3721;44.490;11.220;2022-11-06T00:21:58;8.83;;;4.17;;
7361;SDS011;3721;44.490;11.220;2022-11-06T00:24:34;10.90;;;4.93;;
7361;SDS011;3721;44.490;11.220;2022-11-06T00:27:17;8.67;;;4.37;;
7361;SDS011;3721;44.490;11.220;2022-11-06T00:30:15;10.23;;;4.30;;
7361;SDS011;3721;44.490;11.220;2022-11-06T00:32:56;8.43;;;4.70;;
7361;SDS011;3721;44.490;11.220;2022-11-06T00:35:40;8.13;;;3.90;;
7361;SDS011;3721;44.490;11.220;2022-11-06T00:38:29;8.87;;;4.13;;
7361;SDS011;3721;44.490;11.220;2022-11-06T00:43:57;8.03;;;4.23;;
7361;SDS011;3721;44.490;11.220;2022-11-06T00:46:24;8.50;;;4.47;;
7361;SDS011;3721;44.490;11.220;2022-11-06T00:48:51;7.90;;;4.80;;
7361;SDS011;3721;44.490;11.220;2022-11-06T00:51:18;10.73;;;5.33;;
7361;SDS011;3721;44.490;11.220;2022-11-06T00:53:45;8.43;;;4.07;;
7361;SDS011;3721;44.490;11.220;2022-11-06T00:56:13;9.17;;;5.00;;
7361;SDS011;3721;44.490;11.220;2022-11-06T00:58:40;6.60;;;3.80;;
7361;SDS011;3721;44.490;11.220;2022-11-06T01:01:11;6.37;;;4.10;;
7361;SDS011;3721;44.490;11.220;2022-11-06T01:03:40;12.53;;;5.03;;
7361;SDS011;3721;44.490;11.220;2022-11-06T01:06:14;7.83;;;3.93;;
7361;SDS011;3721;44.490;11.220;2022-11-06T01:08:41;8.17;;;4.10;;
7361;SDS011;3721;44.490;11.220;2022-11-06T01:11:09;6.50;;;3.60;;
7361;SDS011;3721;44.490;11.220;2022-11-06T01:13:40;9.20;;;4.23;;
7361;SDS011;3721;44.490;11.220;2022-11-06T01:16:07;7.13;;;4.33;;
7361;SDS011;3721;44.490;11.220;2022-11-06T01:18:34;6.03;;;3.47;;
7361;SDS011;3721;44.490;11.220;2022-11-06T01:21:08;6.77;;;3.57;;
7361;SDS011;3721;44.490;11.220;2022-11-06T01:23:35;6.90;;;3.50;;
7361;SDS011;3721;44.490;11.220;2022-11-06T01:26:02;7.27;;;3.97;;
7361;SDS011;3721;44.490;11.220;2022-11-06T01:28:29;7.23;;;3.80;;
7361;SDS011;3721;44.490;11.220;2022-11-06T01:30:55;9.50;;;4.07;;
7361;SDS011;3721;44.490;11.220;2022-11-06T01:33:20;6.80;;;3.47;;
7361;SDS011;3721;44.490;11.220;2022-11-06T01:35:47;10.17;;;4.13;;
7361;SDS011;3721;44.490;11.220;2022-11-06T01:38:15;10.90;;;5.80;;
7361;SDS011;3721;44.490;11.220;2022-11-06T01:40:42;6.17;;;3.33;;
7361;SDS011;3721;44.490;11.220;2022-11-06T01:43:14;9.53;;;4.80;;
7361;SDS011;3721;44.490;11.220;2022-11-06T01:45:45;7.63;;;4.20;;
7361;SDS011;3721;44.490;11.220;2022-11-06T01:48:13;8.07;;;4.67;;
7361;SDS011;3721;44.490;11.220;2022-11-06T01:50:42;8.30;;;4.60;;
7361;SDS011;3721;44.490;11.220;2022-11-06T01:53:12;8.50;;;4.43;;
7361;SDS011;3721;44.490;11.220;2022-11-06T01:55:39;7.80;;;3.93;;
7361;SDS011;3721;44.490;11.220;2022-11-06T01:58:09;9.83;;;4.27;;
7361;SDS011;3721;44.490;11.220;2022-11-06T02:00:38;8.90;;;4.10;;
7361;SDS011;3721;44.490;11.220;2022-11-06T02:03:04;8.27;;;3.73;;
7361;SDS011;3721;44.490;11.220;2022-11-06T02:05:31;8.27;;;5.13;;
7361;SDS011;3721;44.490;11.220;2022-11-06T02:07:57;6.50;;;3.40;;
7361;SDS011;3721;44.490;11.220;2022-11-06T02:10:24;9.40;;;4.07;;
7361;SDS011;3721;44.490;11.220;2022-11-06T02:21:18;7.80;;;3.67;;
7361;SDS011;3721;44.490;11.220;2022-11-06T02:29:44;10.00;;;5.07;;
7361;SDS011;3721;44.490;11.220;2022-11-06T02:32:14;10.53;;;4.17;;
7361;SDS011;3721;44.490;11.220;2022-11-06T02:34:49;9.27;;;4.60;;
7361;SDS011;3721;44.490;11.220;2022-11-06T02:37:20;10.00;;;5.40;;
7361;SDS011;3721;44.490;11.220;2022-11-06T02:39:57;7.37;;;3.60;;
7361;SDS011;3721;44.490;11.220;2022-11-06T02:42:27;8.60;;;4.90;;
7361;SDS011;3721;44.490;11.220;2022-11-06T02:44:54;8.37;;;4.03;;
7361;SDS011;3721;44.490;11.220;2022-11-06T02:47:22;8.37;;;3.87;;
7361;SDS011;3721;44.490;11.220;2022-11-06T02:49:54;8.20;;;3.67;;
7361;SDS011;3721;44.490;11.220;2022-11-06T02:52:32;7.90;;;3.97;;
7361;SDS011;3721;44.490;11.220;2022-11-06T02:55:10;6.60;;;3.87;;
7361;SDS011;3721;44.490;11.220;2022-11-06T02:57:59;7.17;;;3.90;;
7361;SDS011;3721;44.490;11.220;2022-11-06T03:00:30;8.80;;;4.57;;
7361;SDS011;3721;44.490;11.220;2022-11-06T03:02:59;8.20;;;4.20;;
7361;SDS011;3721;44.490;11.220;2022-11-06T03:05:35;8.63;;;4.43;;
7361;SDS011;3721;44.490;11.220;2022-11-06T03:10:43;8.53;;;4.60;;
7361;SDS011;3721;44.490;11.220;2022-11-06T03:13:16;8.50;;;4.53;;
7361;SDS011;3721;44.490;11.220;2022-11-06T03:21:43;8.93;;;4.57;;
7361;SDS011;3721;44.490;11.220;2022-11-06T03:24:07;8.03;;;4.50;;
7361;SDS011;3721;44.490;11.220;2022-11-06T03:26:39;8.20;;;4.60;;
7361;SDS011;3721;44.490;11.220;2022-11-06T03:29:19;9.23;;;4.50;;
7361;SDS011;3721;44.490;11.220;2022-11-06T03:34:42;8.67;;;4.90;;
7361;SDS011;3721;44.490;11.220;2022-11-06T03:37:17;7.87;;;4.40;;
7361;SDS011;3721;44.490;11.220;2022-11-06T03:39:49;8.37;;;4.57;;
7361;SDS011;3721;44.490;11.220;2022-11-06T03:42:26;10.37;;;5.27;;
7361;SDS011;3721;44.490;11.220;2022-11-06T03:44:56;8.90;;;4.70;;
7361;SDS011;3721;44.490;11.220;2022-11-06T03:47:26;7.63;;;4.00;;
7361;SDS011;3721;44.490;11.220;2022-11-06T03:49:56;9.30;;;4.80;;
7361;SDS011;3721;44.490;11.220;2022-11-06T03:52:30;9.00;;;4.80;;
7361;SDS011;3721;44.490;11.220;2022-11-06T03:55:04;6.63;;;3.80;;
7361;SDS011;3721;44.490;11.220;2022-11-06T04:00:10;8.03;;;4.50;;
7361;SDS011;3721;44.490;11.220;2022-11-06T04:02:37;7.30;;;3.63;;
7361;SDS011;3721;44.490;11.220;2022-11-06T04:05:12;7.37;;;3.83;;
7361;SDS011;3721;44.490;11.220;2022-11-06T04:07:44;8.07;;;4.37;;
7361;SDS011;3721;44.490;11.220;2022-11-06T04:10:31;7.73;;;4.50;;
7361;SDS011;3721;44.490;11.220;2022-11-06T04:13:21;6.67;;;3.70;;
7361;SDS011;3721;44.490;11.220;2022-11-06T04:16:08;7.33;;;3.90;;
7361;SDS011;3721;44.490;11.220;2022-11-06T04:18:35;7.50;;;3.70;;
7361;SDS011;3721;44.490;11.220;2022-11-06T04:29:48;9.33;;;3.60;;
7361;SDS011;3721;44.490;11.220;2022-11-06T04:38:08;9.97;;;4.07;;
7361;SDS011;3721;44.490;11.220;2022-11-06T04:40:46;5.30;;;3.10;;
7361;SDS011;3721;44.490;11.220;2022-11-06T04:43:22;6.73;;;3.20;;
7361;SDS011;3721;44.490;11.220;2022-11-06T04:46:03;6.43;;;3.23;;
7361;SDS011;3721;44.490;11.220;2022-11-06T04:48:31;7.37;;;3.90;;
7361;SDS011;3721;44.490;11.220;2022-11-06T04:50:59;5.63;;;3.70;;
7361;SDS011;3721;44.490;11.220;2022-11-06T04:53:27;7.73;;;4.03;;
7361;SDS011;3721;44.490;11.220;2022-11-06T04:55:55;6.77;;;3.70;;
7361;SDS011;3721;44.490;11.220;2022-11-06T04:58:25;8.50;;;3.57;;
7361;SDS011;3721;44.490;11.220;2022-11-06T05:00:51;6.73;;;3.40;;
7361;SDS011;3721;44.490;11.220;2022-11-06T05:03:17;7.57;;;4.33;;
7361;SDS011;3721;44.490;11.220;2022-11-06T05:05:43;7.87;;;3.90;;
7361;SDS011;3721;44.490;11.220;2022-11-06T05:08:13;6.60;;;3.70;;
7361;SDS011;3721;44.490;11.220;2022-11-06T05:10:40;8.17;;;3.83;;
7361;SDS011;3721;44.490;11.220;2022-11-06T05:13:06;7.43;;;4.30;;
7361;SDS011;3721;44.490;11.220;2022-11-06T05:15:32;8.30;;;4.20;;
7361;SDS011;3721;44.490;11.220;2022-11-06T05:17:58;5.80;;;3.80;;
7361;SDS011;3721;44.490;11.220;2022-11-06T05:20:24;7.13;;;3.83;;
7361;SDS011;3721;44.490;11.220;2022-11-06T05:22:50;7.10;;;3.73;;
7361;SDS011;3721;44.490;11.220;2022-11-06T05:25:23;6.50;;;4.27;;
7361;SDS011;3721;44.490;11.220;2022-11-06T05:27:49;8.90;;;3.17;;
7361;SDS011;3721;44.490;11.220;2022-11-06T05:30:15;8.10;;;3.70;;
7361;SDS011;3721;44.490;11.220;2022-11-06T05:32:40;5.13;;;3.10;;
7361;SDS011;3721;44.490;11.220;2022-11-06T05:35:06;6.80;;;3.47;;
7361;SDS011;3721;44.490;11.220;2022-11-06T05:37:32;5.53;;;2.90;;
7361;SDS011;3721;44.490;11.220;2022-11-06T05:39:58;5.50;;;3.40;;
7361;SDS011;3721;44.490;11.220;2022-11-06T05:42:23;6.47;;;3.33;;
7361;SDS011;3721;44.490;11.220;2022-11-06T05:44:49;5.70;;;3.00;;
7361;SDS011;3721;44.490;11.220;2022-11-06T05:47:14;5.20;;;2.97;;
7361;SDS011;3721;44.490;11.220;2022-11-06T05:49:40;5.33;;;3.17;;
7361;SDS011;3721;44.490;11.220;2022-11-06T05:52:06;5.53;;;3.37;;
7361;SDS011;3721;44.490;11.220;2022-11-06T05:54:31;5.73;;;3.00;;
7361;SDS011;3721;44.490;11.220;2022-11-06T05:56:57;6.73;;;2.83;;
7361;SDS011;3721;44.490;11.220;2022-11-06T05:59:23;5.90;;;3.30;;
7361;SDS011;3721;44.490;11.220;2022-11-06T06:01:49;4.70;;;2.70;;
7361;SDS011;3721;44.490;11.220;2022-11-06T06:04:14;3.90;;;2.63;;
7361;SDS011;3721;44.490;11.220;2022-11-06T06:06:40;6.70;;;3.00;;
7361;SDS011;3721;44.490;11.220;2022-11-06T06:09:06;5.80;;;2.73;;
7361;SDS011;3721;44.490;11.220;2022-11-06T06:11:32;5.13;;;2.93;;
7361;SDS011;3721;44.490;11.220;2022-11-06T06:13:59;5.10;;;2.93;;
7361;SDS011;3721;44.490;11.220;2022-11-06T06:16:25;6.97;;;2.60;;
7361;SDS011;3721;44.490;11.220;2022-11-06T06:18:50;5.63;;;2.50;;
7361;SDS011;3721;44.490;11.220;2022-11-06T06:21:16;4.50;;;2.37;;
7361;SDS011;3721;44.490;11.220;2022-11-06T06:23:42;4.00;;;2.23;;
7361;SDS011;3721;44.490;11.220;2022-11-06T06:26:07;4.70;;;2.40;;
7361;SDS011;3721;44.490;11.220;2022-11-06T06:28:33;8.53;;;2.73;;
7361;SDS011;3721;44.490;11.220;2022-11-06T06:31:03;6.30;;;3.07;;
7361;SDS011;3721;44.490;11.220;2022-11-06T06:33:30;4.67;;;2.47;;
7361;SDS011;3721;44.490;11.220;2022-11-06T06:35:56;4.50;;;2.37;;
7361;SDS011;3721;44.490;11.220;2022-11-06T06:38:21;5.00;;;2.90;;
7361;SDS011;3721;44.490;11.220;2022-11-06T06:40:47;4.97;;;2.80;;
7361;SDS011;3721;44.490;11.220;2022-11-06T06:43:13;5.13;;;2.63;;
7361;SDS011;3721;44.490;11.220;2022-11-06T06:45:39;10.53;;;3.37;;
7361;SDS011;3721;44.490;11.220;2022-11-06T06:48:04;5.27;;;2.83;;
7361;SDS011;3721;44.490;11.220;2022-11-06T06:50:30;5.90;;;2.97;;
7361;SDS011;3721;44.490;11.220;2022-11-06T06:52:56;5.20;;;3.07;;
7361;SDS011;3721;44.490;11.220;2022-11-06T06:55:23;4.00;;;2.60;;
7361;SDS011;3721;44.490;11.220;2022-11-06T06:57:54;4.40;;;2.70;;
7361;SDS011;3721;44.490;11.220;2022-11-06T07:00:21;4.43;;;2.93;;
7361;SDS011;3721;44.490;11.220;2022-11-06T07:02:47;6.00;;;2.80;;
7361;SDS011;3721;44.490;11.220;2022-11-06T07:05:12;4.20;;;2.30;;
7361;SDS011;3721;44.490;11.220;2022-11-06T07:07:38;6.07;;;2.80;;
7361;SDS011;3721;44.490;11.220;2022-11-06T07:10:04;4.63;;;2.47;;
7361;SDS011;3721;44.490;11.220;2022-11-06T07:12:30;6.70;;;2.80;;
7361;SDS011;3721;44.490;11.220;2022-11-06T07:14:55;8.83;;;2.57;;
7361;SDS011;3721;44.490;11.220;2022-11-06T07:17:21;6.50;;;2.73;;
7361;SDS011;3721;44.490;11.220;2022-11-06T07:19:46;6.90;;;3.00;;
7361;SDS011;3721;44.490;11.220;2022-11-06T07:22:12;4.37;;;2.80;;
7361;SDS011;3721;44.490;11.220;2022-11-06T07:24:38;4.97;;;2.50;;
7361;SDS011;3721;44.490;11.220;2022-11-06T07:27:03;4.83;;;2.53;;
7361;SDS011;3721;44.490;11.220;2022-11-06T07:29:29;5.70;;;2.60;;
7361;SDS011;3721;44.490;11.220;2022-11-06T07:31:55;5.63;;;2.77;;
7361;SDS011;3721;44.490;11.220;2022-11-06T07:34:21;6.00;;;2.93;;
7361;SDS011;3721;44.490;11.220;2022-11-06T07:36:46;5.93;;;2.70;;
7361;SDS011;3721;44.490;11.220;2022-11-06T07:39:12;6.13;;;2.80;;
7361;SDS011;3721;44.490;11.220;2022-11-06T07:41:37;4.27;;;2.10;;
7361;SDS011;3721;44.490;11.220;2022-11-06T07:44:03;4.10;;;2.47;;
7361;SDS011;3721;44.490;11.220;2022-11-06T07:46:29;4.67;;;2.63;;
7361;SDS011;3721;44.490;11.220;2022-11-06T07:48:55;5.03;;;2.90;;
7361;SDS011;3721;44.490;11.220;2022-11-06T07:51:20;6.33;;;2.93;;
7361;SDS011;3721;44.490;11.220;2022-11-06T07:53:46;4.67;;;2.47;;
7361;SDS011;3721;44.490;11.220;2022-11-06T07:56:12;4.37;;;2.63;;
7361;SDS011;3721;44.490;11.220;2022-11-06T07:58:37;6.40;;;2.80;;
7361;SDS011;3721;44.490;11.220;2022-11-06T08:01:03;8.83;;;2.87;;
7361;SDS011;3721;44.490;11.220;2022-11-06T08:03:29;6.90;;;2.80;;
7361;SDS011;3721;44.490;11.220;2022-11-06T08:05:55;7.43;;;3.23;;
7361;SDS011;3721;44.490;11.220;2022-11-06T08:08:22;4.63;;;2.57;;
7361;SDS011;3721;44.490;11.220;2022-11-06T08:10:48;5.80;;;2.57;;
7361;SDS011;3721;44.490;11.220;2022-11-06T08:13:16;6.00;;;2.90;;
7361;SDS011;3721;44.490;11.220;2022-11-06T08:15:42;5.90;;;2.47;;
7361;SDS011;3721;44.490;11.220;2022-11-06T08:18:09;4.77;;;2.60;;
7361;SDS011;3721;44.490;11.220;2022-11-06T08:20:36;6.20;;;3.13;;
7361;SDS011;3721;44.490;11.220;2022-11-06T08:23:03;4.73;;;3.40;;
7361;SDS011;3721;44.490;11.220;2022-11-06T08:25:32;7.40;;;2.87;;
7361;SDS011;3721;44.490;11.220;2022-11-06T08:27:59;5.70;;;3.20;;
7361;SDS011;3721;44.490;11.220;2022-11-06T08:30:26;5.43;;;3.50;;
7361;SDS011;3721;44.490;11.220;2022-11-06T08:32:54;5.20;;;2.70;;
7361;SDS011;3721;44.490;11.220;2022-11-06T08:35:23;4.77;;;2.80;;
7361;SDS011;3721;44.490;11.220;2022-11-06T08:37:49;6.90;;;3.03;;
7361;SDS011;3721;44.490;11.220;2022-11-06T08:40:14;5.20;;;2.63;;
7361;SDS011;3721;44.490;11.220;2022-11-06T08:42:40;5.57;;;2.90;;
7361;SDS011;3721;44.490;11.220;2022-11-06T08:45:06;5.90;;;2.80;;
7361;SDS011;3721;44.490;11.220;2022-11-06T08:47:32;5.43;;;2.90;;
7361;SDS011;3721;44.490;11.220;2022-11-06T08:49:58;4.93;;;2.80;;
7361;SDS011;3721;44.490;11.220;2022-11-06T08:52:23;7.33;;;3.33;;
7361;SDS011;3721;44.490;11.220;2022-11-06T08:54:49;9.40;;;3.80;;
7361;SDS011;3721;44.490;11.220;2022-11-06T08:57:15;6.77;;;3.50;;
7361;SDS011;3721;44.490;11.220;2022-11-06T08:59:41;6.33;;;3.47;;
7361;SDS011;3721;44.490;11.220;2022-11-06T09:02:09;5.80;;;3.90;;
7361;SDS011;3721;44.490;11.220;2022-11-06T09:04:39;8.67;;;3.90;;
7361;SDS011;3721;44.490;11.220;2022-11-06T09:07:05;6.33;;;3.40;;
7361;SDS011;3721;44.490;11.220;2022-11-06T09:09:31;6.50;;;3.30;;
7361;SDS011;3721;44.490;11.220;2022-11-06T09:11:57;7.60;;;4.30;;
7361;SDS011;3721;44.490;11.220;2022-11-06T09:14:24;8.90;;;5.13;;
7361;SDS011;3721;44.490;11.220;2022-11-06T09:16:50;7.23;;;3.60;;
7361;SDS011;3721;44.490;11.220;2022-11-06T09:19:16;8.43;;;3.40;;
7361;SDS011;3721;44.490;11.220;2022-11-06T09:21:42;11.50;;;3.93;;
7361;SDS011;3721;44.490;11.220;2022-11-06T09:24:07;5.63;;;3.37;;
7361;SDS011;3721;44.490;11.220;2022-11-06T09:26:33;5.20;;;3.20;;
7361;SDS011;3721;44.490;11.220;2022-11-06T09:28:59;6.13;;;3.30;;
7361;SDS011;3721;44.490;11.220;2022-11-06T09:31:24;7.57;;;3.73;;
7361;SDS011;3721;44.490;11.220;2022-11-06T09:33:50;6.13;;;4.00;;
7361;SDS011;3721;44.490;11.220;2022-11-06T09:36:16;5.63;;;3.33;;
7361;SDS011;3721;44.490;11.220;2022-11-06T09:38:42;6.90;;;3.40;;
7361;SDS011;3721;44.490;11.220;2022-11-06T09:41:14;7.27;;;3.40;;
7361;SDS011;3721;44.490;11.220;2022-11-06T09:46:38;7.40;;;4.10;;
7361;SDS011;3721;44.490;11.220;2022-11-06T09:52:11;8.20;;;3.83;;
7361;SDS011;3721;44.490;11.220;2022-11-06T09:54:39;7.47;;;3.87;;
7361;SDS011;3721;44.490;11.220;2022-11-06T09:57:17;14.53;;;3.97;;
7361;SDS011;3721;44.490;11.220;2022-11-06T09:59:45;6.00;;;3.20;;
7361;SDS011;3721;44.490;11.220;2022-11-06T10:02:21;8.73;;;3.80;;
7361;SDS011;3721;44.490;11.220;2022-11-06T10:05:09;5.20;;;3.03;;
7361;SDS011;3721;44.490;11.220;2022-11-06T10:07:56;7.40;;;3.33;;
7361;SDS011;3721;44.490;11.220;2022-11-06T10:21:34;4.97;;;2.87;;
7361;SDS011;3721;44.490;11.220;2022-11-06T10:24:07;6.40;;;3.83;;
7361;SDS011;3721;44.490;11.220;2022-11-06T10:26:55;7.60;;;4.00;;
7361;SDS011;3721;44.490;11.220;2022-11-06T10:35:07;9.40;;;4.07;;
7361;SDS011;3721;44.490;11.220;2022-11-06T10:40:31;9.20;;;3.30;;
7361;SDS011;3721;44.490;11.220;2022-11-06T10:43:05;6.97;;;3.43;;
7361;SDS011;3721;44.490;11.220;2022-11-06T10:45:49;7.27;;;4.00;;
7361;SDS011;3721;44.490;11.220;2022-11-06T10:48:23;4.67;;;3.00;;
7361;SDS011;3721;44.490;11.220;2022-11-06T10:56:50;5.80;;;3.40;;
7361;SDS011;3721;44.490;11.220;2022-11-06T10:59:18;8.10;;;3.60;;
7361;SDS011;3721;44.490;11.220;2022-11-06T11:01:44;6.30;;;3.10;;
7361;SDS011;3721;44.490;11.220;2022-11-06T11:04:10;5.53;;;3.00;;
7361;SDS011;3721;44.490;11.220;2022-11-06T11:06:38;7.90;;;4.00;;
7361;SDS011;3721;44.490;11.220;2022-11-06T11:11:57;6.10;;;3.30;;
7361;SDS011;3721;44.490;11.220;2022-11-06T11:14:24;6.90;;;3.47;;
7361;SDS011;3721;44.490;11.220;2022-11-06T11:16:52;4.53;;;2.80;;
7361;SDS011;3721;44.490;11.220;2022-11-06T11:19:25;6.87;;;3.70;;
7361;SDS011;3721;44.490;11.220;2022-11-06T11:21:55;6.40;;;3.50;;
7361;SDS011;3721;44.490;11.220;2022-11-06T11:24:22;5.07;;;3.07;;
7361;SDS011;3721;44.490;11.220;2022-11-06T11:26:53;4.90;;;3.03;;
7361;SDS011;3721;44.490;11.220;2022-11-06T11:29:25;6.37;;;3.20;;
7361;SDS011;3721;44.490;11.220;2022-11-06T11:32:11;8.17;;;3.10;;
7361;SDS011;3721;44.490;11.220;2022-11-06T11:34:43;7.00;;;3.00;;
7361;SDS011;3721;44.490;11.220;2022-11-06T11:42:45;4.67;;;3.00;;
7361;SDS011;3721;44.490;11.220;2022-11-06T11:45:11;4.80;;;3.00;;
7361;SDS011;3721;44.490;11.220;2022-11-06T11:47:40;5.87;;;3.50;;
7361;SDS011;3721;44.490;11.220;2022-11-06T11:52:59;8.73;;;3.00;;
7361;SDS011;3721;44.490;11.220;2022-11-06T11:55:43;4.97;;;2.50;;
7361;SDS011;3721;44.490;11.220;2022-11-06T11:58:14;6.33;;;2.53;;
7361;SDS011;3721;44.490;11.220;2022-11-06T12:00:51;5.03;;;2.70;;
7361;SDS011;3721;44.490;11.220;2022-11-06T12:03:23;4.20;;;2.37;;
7361;SDS011;3721;44.490;11.220;2022-11-06T12:05:52;6.40;;;3.03;;
7361;SDS011;3721;44.490;11.220;2022-11-06T12:08:27;4.27;;;2.70;;
7361;SDS011;3721;44.490;11.220;2022-11-06T12:10:57;4.67;;;2.30;;
7361;SDS011;3721;44.490;11.220;2022-11-06T12:13:28;5.43;;;2.90;;
7361;SDS011;3721;44.490;11.220;2022-11-06T12:15:58;4.70;;;2.80;;
7361;SDS011;3721;44.490;11.220;2022-11-06T12:18:46;4.90;;;2.50;;
7361;SDS011;3721;44.490;11.220;2022-11-06T12:21:16;4.70;;;2.33;;
7361;SDS011;3721;44.490;11.220;2022-11-06T12:28:59;4.83;;;2.57;;
7361;SDS011;3721;44.490;11.220;2022-11-06T12:31:58;3.97;;;2.23;;
7361;SDS011;3721;44.490;11.220;2022-11-06T12:34:36;5.67;;;2.33;;
7361;SDS011;3721;44.490;11.220;2022-11-06T12:40:19;4.37;;;2.20;;
7361;SDS011;3721;44.490;11.220;2022-11-06T12:51:45;3.80;;;2.20;;
7361;SDS011;3721;44.490;11.220;2022-11-06T12:57:25;4.00;;;1.77;;
7361;SDS011;3721;44.490;11.220;2022-11-06T13:05:22;4.93;;;1.77;;
7361;SDS011;3721;44.490;11.220;2022-11-06T13:11:05;3.90;;;1.97;;
7361;SDS011;3721;44.490;11.220;2022-11-06T13:17:29;4.87;;;1.87;;
7361;SDS011;3721;44.490;11.220;2022-11-06T13:29:50;4.37;;;2.07;;
7361;SDS011;3721;44.490;11.220;2022-11-06T13:32:20;4.00;;;2.40;;
7361;SDS011;3721;44.490;11.220;2022-11-06T13:34:49;4.50;;;2.37;;
7361;SDS011;3721;44.490;11.220;2022-11-06T13:37:19;3.97;;;2.30;;
7361;SDS011;3721;44.490;11.220;2022-11-06T13:39:55;4.80;;;2.17;;
7361;SDS011;3721;44.490;11.220;2022-11-06T13:42:29;3.67;;;1.97;;
7361;SDS011;3721;44.490;11.220;2022-11-06T13:45:00;3.93;;;1.80;;
7361;SDS011;3721;44.490;11.220;2022-11-06T13:52:40;4.20;;;2.30;;
7361;SDS011;3721;44.490;11.220;2022-11-06T14:06:30;4.83;;;2.20;;
7361;SDS011;3721;44.490;11.220;2022-11-06T14:11:33;6.03;;;2.07;;
7361;SDS011;3721;44.490;11.220;2022-11-06T14:14:05;4.13;;;2.20;;
7361;SDS011;3721;44.490;11.220;2022-11-06T14:16:36;3.47;;;1.93;;
7361;SDS011;3721;44.490;11.220;2022-11-06T14:19:21;4.50;;;2.07;;
7361;SDS011;3721;44.490;11.220;2022-11-06T14:21:52;4.27;;;2.03;;
7361;SDS011;3721;44.490;11.220;2022-11-06T14:24:29;5.23;;;2.07;;
7361;SDS011;3721;44.490;11.220;2022-11-06T14:26:56;3.93;;;2.03;;
7361;SDS011;3721;44.490;11.220;2022-11-06T14:34:40;6.40;;;1.73;;
7361;SDS011;3721;44.490;11.220;2022-11-06T14:42:17;3.53;;;1.90;;
7361;SDS011;3721;44.490;11.220;2022-11-06T14:47:39;4.83;;;1.60;;
7361;SDS011;3721;44.490;11.220;2022-11-06T14:52:44;3.33;;;1.97;;
7361;SDS011;3721;44.490;11.220;2022-11-06T14:55:32;3.00;;;1.70;;
7361;SDS011;3721;44.490;11.220;2022-11-06T15:00:58;4.10;;;1.80;;
7361;SDS011;3721;44.490;11.220;2022-11-06T15:16:24;2.93;;;1.47;;
7361;SDS011;3721;44.490;11.220;2022-11-06T15:18:51;3.10;;;1.57;;
7361;SDS011;3721;44.490;11.220;2022-11-06T15:21:20;4.30;;;1.77;;
7361;SDS011;3721;44.490;11.220;2022-11-06T15:26:27;3.70;;;1.67;;
7361;SDS011;3721;44.490;11.220;2022-11-06T15:31:48;3.70;;;1.77;;
7361;SDS011;3721;44.490;11.220;2022-11-06T15:34:35;5.30;;;2.30;;
7361;SDS011;3721;44.490;11.220;2022-11-06T15:37:09;3.47;;;2.27;;
7361;SDS011;3721;44.490;11.220;2022-11-06T15:39:41;5.53;;;2.00;;
7361;SDS011;3721;44.490;11.220;2022-11-06T15:42:21;7.07;;;2.10;;
7361;SDS011;3721;44.490;11.220;2022-11-06T15:45:05;3.40;;;2.23;;
7361;SDS011;3721;44.490;11.220;2022-11-06T15:47:36;4.47;;;1.90;;
7361;SDS011;3721;44.490;11.220;2022-11-06T15:52:37;6.67;;;2.40;;
7361;SDS011;3721;44.490;11.220;2022-11-06T15:55:03;6.50;;;2.10;;
7361;SDS011;3721;44.490;11.220;2022-11-06T15:57:29;6.93;;;2.40;;
7361;SDS011;3721;44.490;11.220;2022-11-06T16:02:49;5.47;;;2.80;;
7361;SDS011;3721;44.490;11.220;2022-11-06T16:05:28;4.87;;;2.63;;
7361;SDS011;3721;44.490;11.220;2022-11-06T16:07:56;5.97;;;2.63;;
7361;SDS011;3721;44.490;11.220;2022-11-06T16:10:24;6.50;;;3.20;;
7361;SDS011;3721;44.490;11.220;2022-11-06T16:12:51;7.70;;;3.20;;
7361;SDS011;3721;44.490;11.220;2022-11-06T16:23:44;8.50;;;2.90;;
7361;SDS011;3721;44.490;11.220;2022-11-06T16:28:51;5.53;;;2.97;;
7361;SDS011;3721;44.490;11.220;2022-11-06T16:31:19;7.60;;;3.60;;
7361;SDS011;3721;44.490;11.220;2022-11-06T16:36:22;6.27;;;2.83;;
7361;SDS011;3721;44.490;11.220;2022-11-06T16:38:49;6.57;;;2.80;;
7361;SDS011;3721;44.490;11.220;2022-11-06T16:41:17;7.63;;;2.63;;
7361;SDS011;3721;44.490;11.220;2022-11-06T16:44:16;7.70;;;2.20;;
7361;SDS011;3721;44.490;11.220;2022-11-06T16:47:11;6.50;;;3.43;;
7361;SDS011;3721;44.490;11.220;2022-11-06T16:49:38;6.37;;;3.00;;
7361;SDS011;3721;44.490;11.220;2022-11-06T16:57:26;6.57;;;2.87;;
7361;SDS011;3721;44.490;11.220;2022-11-06T17:02:55;7.10;;;3.60;;
7361;SDS011;3721;44.490;11.220;2022-11-06T17:05:26;7.00;;;3.40;;
7361;SDS011;3721;44.490;11.220;2022-11-06T17:08:06;10.50;;;4.10;;
7361;SDS011;3721;44.490;11.220;2022-11-06T17:10:56;5.93;;;3.80;;
7361;SDS011;3721;44.490;11.220;2022-11-06T17:13:27;6.47;;;3.80;;
7361;SDS011;3721;44.490;11.220;2022-11-06T17:15:59;7.50;;;3.47;;
7361;SDS011;3721;44.490;11.220;2022-11-06T17:20:54;7.07;;;3.93;;
7361;SDS011;3721;44.490;11.220;2022-11-06T17:23:22;6.00;;;3.80;;
7361;SDS011;3721;44.490;11.220;2022-11-06T17:25:49;6.63;;;4.00;;
7361;SDS011;3721;44.490;11.220;2022-11-06T17:28:16;7.40;;;3.60;;
7361;SDS011;3721;44.490;11.220;2022-11-06T17:30:43;7.53;;;4.10;;
7361;SDS011;3721;44.490;11.220;2022-11-06T17:33:10;9.80;;;4.10;;
7361;SDS011;3721;44.490;11.220;2022-11-06T17:35:36;6.03;;;3.80;;
7361;SDS011;3721;44.490;11.220;2022-11-06T17:38:02;6.67;;;4.27;;
7361;SDS011;3721;44.490;11.220;2022-11-06T17:40:28;7.37;;;4.20;;
7361;SDS011;3721;44.490;11.220;2022-11-06T17:42:54;8.80;;;4.33;;
7361;SDS011;3721;44.490;11.220;2022-11-06T17:45:20;8.53;;;4.10;;
7361;SDS011;3721;44.490;11.220;2022-11-06T17:47:46;6.20;;;3.77;;
7361;SDS011;3721;44.490;11.220;2022-11-06T17:50:12;8.23;;;4.10;;
7361;SDS011;3721;44.490;11.220;2022-11-06T17:52:37;10.77;;;4.20;;
7361;SDS011;3721;44.490;11.220;2022-11-06T17:55:03;6.47;;;4.20;;
7361;SDS011;3721;44.490;11.220;2022-11-06T17:57:30;6.97;;;4.50;;
7361;SDS011;3721;44.490;11.220;2022-11-06T17:59:56;8.83;;;4.13;;
7361;SDS011;3721;44.490;11.220;2022-11-06T18:02:21;8.90;;;4.60;;
7361;SDS011;3721;44.490;11.220;2022-11-06T18:04:47;5.70;;;4.00;;
7361;SDS011;3721;44.490;11.220;2022-11-06T18:07:15;7.67;;;3.90;;
7361;SDS011;3721;44.490;11.220;2022-11-06T18:09:43;7.07;;;3.70;;
7361;SDS011;3721;44.490;11.220;2022-11-06T18:12:11;7.60;;;4.27;;
7361;SDS011;3721;44.490;11.220;2022-11-06T18:14:38;5.93;;;3.63;;
7361;SDS011;3721;44.490;11.220;2022-11-06T18:17:04;5.93;;;3.70;;
7361;SDS011;3721;44.490;11.220;2022-11-06T18:19:30;6.20;;;3.73;;
7361;SDS011;3721;44.490;11.220;2022-11-06T18:21:56;9.03;;;3.60;;
7361;SDS011;3721;44.490;11.220;2022-11-06T18:24:22;7.97;;;3.40;;
7361;SDS011;3721;44.490;11.220;2022-11-06T18:26:48;6.77;;;3.23;;
7361;SDS011;3721;44.490;11.220;2022-11-06T18:29:14;5.37;;;3.10;;
7361;SDS011;3721;44.490;11.220;2022-11-06T18:31:40;6.43;;;3.67;;
7361;SDS011;3721;44.490;11.220;2022-11-06T18:34:06;7.47;;;3.50;;
7361;SDS011;3721;44.490;11.220;2022-11-06T18:36:35;5.93;;;3.70;;
7361;SDS011;3721;44.490;11.220;2022-11-06T18:39:01;10.20;;;3.50;;
7361;SDS011;3721;44.490;11.220;2022-11-06T18:41:28;7.00;;;3.60;;
7361;SDS011;3721;44.490;11.220;2022-11-06T18:43:57;6.60;;;3.17;;
7361;SDS011;3721;44.490;11.220;2022-11-06T18:46:24;6.67;;;3.73;;
7361;SDS011;3721;44.490;11.220;2022-11-06T18:48:50;8.20;;;3.27;;
7361;SDS011;3721;44.490;11.220;2022-11-06T18:51:20;4.97;;;3.40;;
7361;SDS011;3721;44.490;11.220;2022-11-06T18:53:48;5.87;;;3.70;;